Time;durP1;ratioP1;P1;durP2;ratioP2;P2;SDS_P1;SDS_P2;PMS_P1;PMS_P2;Temp;Humidity;BMP_temperature;BMP_pressure;BME280_temperature;BME280_humidity;BME280_pressure;Samples;Min_cycle;Max_cycle;Signal;HPM_P1;HPM_P2
2022/10/28 00:02:24;;;;;;;;;;;19.00;87.70;;;19.45;53.85;99395.50;4948376;28;119506;-75
2022/10/28 00:04:51;;;;;;;;;;;19.00;87.80;;;19.42;53.52;99392.28;4962552;28;119430;-75
2022/10/28 00:07:17;;;;;;;;;;;19.00;87.80;;;19.40;53.66;99391.81;4948820;28;124839;-76
2022/10/28 00:09:43;;;;;;;;;;;18.90;87.90;;;19.38;53.96;99391.34;4954288;28;124011;-75
2022/10/28 00:12:09;;;;;;;;;;;18.90;87.90;;;19.34;53.68;99396.03;4958492;28;119992;-79
2022/10/28 00:14:36;;;;;;;;;;;18.90;88.00;;;19.33;53.95;99400.00;4958432;28;119331;-78
2022/10/28 00:17:02;;;;;;;;;;;18.90;88.10;;;19.31;53.83;99402.34;4958089;28;124214;-79
2022/10/28 00:19:29;;;;;;;;;;;18.90;88.10;;;19.33;53.87;99399.19;4951492;28;124052;-79
2022/10/28 00:21:55;;;;;;;;;;;18.90;88.20;;;19.33;53.95;99385.19;4947076;28;119088;-78
2022/10/28 00:24:21;;;;;;;;;;;18.90;88.30;;;19.33;53.82;99390.78;4955714;28;118680;-76
2022/10/28 00:26:48;;;;;;;;;;;18.90;88.30;;;19.30;54.18;99383.09;4953657;28;125061;-79
2022/10/28 00:29:17;;;;;;;;;;;18.90;88.40;;;19.30;53.52;99385.91;4955892;28;123685;-80
2022/10/28 00:31:44;;;;;;;;;;;18.90;88.40;;;19.29;54.16;99382.28;4960512;28;120517;-76
2022/10/28 00:34:13;;;;;;;;;;;18.90;88.50;;;19.27;53.93;99383.81;4955424;28;118874;-76
2022/10/28 00:36:41;;;;;;;;;;;18.80;88.50;;;19.23;54.24;99389.28;4948275;28;124354;-76
2022/10/28 00:39:18;;;;;;;;;;;18.80;88.50;;;19.22;54.08;99387.66;4944307;28;126596;-76
2022/10/28 00:41:51;;;;;;;;;;;18.80;88.70;;;19.19;54.30;99391.19;4942960;28;118531;-76
2022/10/28 00:44:48;;;;;;;;;;;18.70;88.70;;;19.17;54.36;99387.91;4952201;28;118998;-79
2022/10/28 00:47:23;;;;;;;;;;;18.70;89.00;;;19.14;54.37;99391.44;4946209;28;124319;-80
2022/10/28 00:49:51;;;;;;;;;;;18.70;89.10;;;19.11;54.67;99381.75;4943605;28;123844;-77
2022/10/28 00:52:20;;;;;;;;;;;18.60;89.30;;;19.09;54.80;99386.09;4944285;28;117979;-77
2022/10/28 00:54:48;;;;;;;;;;;18.60;89.30;;;19.10;54.72;99385.75;4954214;28;119729;-76
2022/10/28 00:57:16;;;;;;;;;;;18.60;89.40;;;19.10;54.51;99384.91;4944282;28;124474;-78
2022/10/28 00:59:45;;;;;;;;;;;18.60;89.50;;;19.11;54.41;99380.94;4946668;28;124483;-76
2022/10/28 01:02:11;;;;;;;;;;;18.60;89.50;;;19.11;54.72;99381.75;4954228;28;119229;-78
2022/10/28 01:04:38;;;;;;;;;;;18.60;89.50;;;19.12;54.52;99383.38;4948226;28;118989;-79
2022/10/28 01:07:04;;;;;;;;;;;18.60;89.60;;;19.14;54.41;99391.44;4950591;28;124269;-76
2022/10/28 01:09:31;;;;;;;;;;;18.70;89.60;;;19.15;54.42;99387.44;4946554;28;124414;-78
2022/10/28 01:12:06;;;;;;;;;;;18.70;89.60;;;19.17;54.25;99390.72;4949167;28;120147;-76
2022/10/28 01:14:57;;;;;;;;;;;18.10;89.00;;;19.17;54.43;99385.13;4963588;28;119029;-77
2022/10/28 01:17:41;;;;;;;;;;;18.70;89.60;;;19.17;54.38;99377.53;4945357;28;125317;-79
2022/10/28 01:20:29;;;;;;;;;;;18.70;89.60;;;19.17;54.66;99371.91;4961910;28;123889;-79
2022/10/28 01:22:58;;;;;;;;;;;18.70;89.70;;;19.18;54.40;99372.72;4965806;28;120309;-80
2022/10/28 01:25:35;;;;;;;;;;;18.70;89.80;;;19.18;54.20;99372.72;4954063;28;120327;-82
2022/10/28 01:28:21;;;;;;;;;;;18.70;89.60;;;19.18;54.20;99372.72;4948502;28;124972;-78
2022/10/28 01:31:08;;;;;;;;;;;18.70;89.40;;;19.19;54.04;99368.78;4958295;28;123908;-75
2022/10/28 01:33:44;;;;;;;;;;;18.70;89.30;;;19.20;54.03;99373.19;4956510;28;119620;-74
2022/10/28 01:36:14;;;;;;;;;;;18.70;89.30;;;19.22;54.29;99370.88;4955876;28;118571;-77
2022/10/28 01:38:49;;;;;;;;;;;18.70;89.30;;;19.22;54.01;99368.06;4948245;28;125618;-75
2022/10/28 01:41:21;;;;;;;;;;;18.70;89.30;;;19.24;53.70;99371.31;4964245;28;123827;-76
2022/10/28 01:43:59;;;;;;;;;;;18.70;89.20;;;19.25;53.71;99372.13;4955820;28;119741;-78
2022/10/28 01:46:36;;;;;;;;;;;18.70;89.10;;;19.24;53.83;99376.13;4936166;28;118085;-80
2022/10/28 01:49:27;;;;;;;;;;;18.70;89.10;;;19.24;53.55;99373.31;4948213;28;125092;-79
2022/10/28 01:51:57;;;;;;;;;;;18.70;89.00;;;19.24;53.52;99374.13;4945185;28;122946;-76
2022/10/28 01:54:26;;;;;;;;;;;18.70;89.00;;;19.27;53.51;99369.81;4957427;28;119396;-77
2022/10/28 01:56:53;;;;;;;;;;;18.80;89.10;;;19.29;53.43;99371.06;4955272;28;118757;-76
2022/10/28 01:59:22;;;;;;;;;;;18.80;89.00;;;19.31;53.47;99368.72;4955041;28;124819;-79
2022/10/28 02:01:48;;;;;;;;;;;18.80;88.90;;;19.33;53.48;99366.38;4948942;28;123819;-76
2022/10/28 02:04:14;;;;;;;;;;;18.80;88.80;;;19.36;53.24;99370.44;4956453;28;119509;-77
2022/10/28 02:06:43;;;;;;;;;;;18.80;88.80;;;19.36;53.34;99374.06;4962891;28;118085;-75
2022/10/28 02:09:26;;;;;;;;;;;18.80;88.70;;;19.38;53.37;99363.31;4963873;28;123705;-77
2022/10/28 02:12:11;;;;;;;;;;;18.90;88.80;;;19.38;53.39;99368.91;4966042;28;123353;-79
2022/10/28 02:14:56;;;;;;;;;;;18.90;88.90;;;19.32;53.38;99361.94;4959499;28;120665;-76
2022/10/28 02:17:44;;;;;;;;;;;18.00;88.10;;;19.28;53.57;99360.22;4963429;28;120071;-77
2022/10/28 02:20:33;;;;;;;;;;;18.80;88.90;;;19.23;53.67;99361.28;4959488;28;123983;-77
2022/10/28 02:23:18;;;;;;;;;;;18.80;89.10;;;19.18;53.80;99359.56;4955636;28;124088;-77
2022/10/28 02:26:02;;;;;;;;;;;18.80;89.10;;;19.17;53.93;99351.50;4957008;28;119868;-76
2022/10/28 02:28:56;;;;;;;;;;;18.70;89.00;;;19.16;53.89;99356.28;4951046;28;118647;-75
2022/10/28 02:31:28;;;;;;;;;;;18.70;89.10;;;19.18;53.74;99364.31;4935971;28;123831;-76
2022/10/28 02:33:59;;;;;;;;;;;18.70;89.10;;;19.18;53.94;99353.13;4966990;28;124804;-76
2022/10/28 02:36:27;;;;;;;;;;;18.70;89.20;;;19.19;53.95;99349.16;4959968;28;120099;-76
2022/10/28 02:38:55;;;;;;;;;;;18.70;89.30;;;19.19;54.15;99349.16;4962160;28;118548;-76
2022/10/28 02:41:26;;;;;;;;;;;18.70;89.30;;;19.17;54.04;99348.69;4965989;28;123633;-76
2022/10/28 02:43:56;;;;;;;;;;;18.70;89.40;;;19.14;53.90;99350.22;4962030;28;123696;-76
2022/10/28 02:46:23;;;;;;;;;;;18.70;89.50;;;19.12;54.28;99343.34;4954859;28;119919;-75
2022/10/28 02:48:52;;;;;;;;;;;18.70;89.50;;;19.08;54.29;99336.84;4951211;28;118928;-75
2022/10/28 02:51:21;;;;;;;;;;;18.60;89.60;;;19.03;54.31;99340.72;4964543;28;124357;-75
2022/10/28 02:54:10;;;;;;;;;;;18.60;89.70;;;18.98;54.38;99350.16;4948925;28;124558;-75
2022/10/28 02:56:40;;;;;;;;;;;18.60;89.80;;;18.92;54.52;99351.59;4963064;28;119506;-75
2022/10/28 02:59:11;;;;;;;;;;;18.50;89.80;;;18.90;54.67;99362.31;4960271;28;118841;-75
2022/10/28 03:01:38;;;;;;;;;;;18.50;90.00;;;18.87;54.77;99351.84;4959615;28;124054;-76
2022/10/28 03:04:05;;;;;;;;;;;18.40;90.00;;;18.84;54.83;99337.75;4950993;28;124065;-76
2022/10/28 03:06:31;;;;;;;;;;;18.40;90.00;;;18.81;54.82;99344.06;4950225;28;120204;-75
2022/10/28 03:08:57;;;;;;;;;;;18.40;90.00;;;18.77;54.91;99349.53;4957900;28;119838;-76
2022/10/28 03:11:24;;;;;;;;;;;18.40;90.10;;;18.73;55.13;99345.78;4965883;28;124340;-80
2022/10/28 03:13:50;;;;;;;;;;;18.30;90.10;;;18.69;54.99;99353.25;4956510;28;124445;-78
2022/10/28 03:16:16;;;;;;;;;;;18.30;90.20;;;18.67;55.11;99349.97;4965419;28;119342;-76
2022/10/28 03:18:42;;;;;;;;;;;18.30;90.20;;;18.67;55.21;99361.19;4960946;28;118666;-77
2022/10/28 03:21:09;;;;;;;;;;;18.20;90.20;;;18.62;55.17;99362.25;4969594;28;124209;-80
2022/10/28 03:23:35;;;;;;;;;;;18.20;90.30;;;18.60;55.60;99349.78;4965529;28;123755;-75
2022/10/28 03:26:01;;;;;;;;;;;18.20;90.30;;;18.59;55.40;99356.53;4957822;28;120326;-76
2022/10/28 03:28:28;;;;;;;;;;;18.20;90.40;;;18.58;55.30;99347.31;4961758;28;119446;-76
2022/10/28 03:30:54;;;;;;;;;;;18.10;90.40;;;18.57;55.49;99350.50;4965511;28;124482;-76
2022/10/28 03:33:20;;;;;;;;;;;18.10;90.40;;;18.53;55.86;99356.78;4962253;28;124325;-76
2022/10/28 03:35:46;;;;;;;;;;;18.10;90.40;;;18.51;55.50;99352.69;4963232;28;119363;-76
2022/10/28 03:38:13;;;;;;;;;;;18.10;90.50;;;18.48;55.66;99348.66;4962900;28;119271;-75
2022/10/28 03:40:39;;;;;;;;;;;18.10;90.60;;;18.47;55.86;99352.59;4959640;28;124079;-76
2022/10/28 03:43:05;;;;;;;;;;;18.00;90.60;;;18.46;55.70;99350.97;4963677;28;123876;-76
2022/10/28 03:45:32;;;;;;;;;;;18.00;90.60;;;18.47;55.84;99351.78;4959623;28;120026;-75
2022/10/28 03:47:58;;;;;;;;;;;18.00;90.70;;;18.46;55.86;99353.78;4960900;28;119318;-75
2022/10/28 03:50:24;;;;;;;;;;;18.00;90.70;;;18.45;55.80;99348.50;4955986;28;123851;-76
2022/10/28 03:52:50;;;;;;;;;;;18.00;90.80;;;18.44;56.00;99346.91;4957224;28;123827;-75
2022/10/28 03:55:17;;;;;;;;;;;18.00;90.80;;;18.42;55.96;99352.03;4965340;28;120389;-77
2022/10/28 03:57:43;;;;;;;;;;;17.90;90.80;;;18.36;56.12;99340.25;4955428;28;120302;-75
2022/10/28 04:00:10;;;;;;;;;;;17.90;90.80;;;18.30;56.25;99333.28;4962923;28;124171;-75
2022/10/28 04:02:36;;;;;;;;;;;17.80;90.90;;;18.23;56.29;99336.63;4965740;28;123262;-76
2022/10/28 04:05:03;;;;;;;;;;;17.70;91.00;;;18.16;56.58;99335.59;4955768;28;119509;-78
2022/10/28 04:07:29;;;;;;;;;;;17.70;91.10;;;18.09;56.63;99328.59;4964850;28;118562;-76
2022/10/28 04:09:55;;;;;;;;;;;17.60;91.10;;;18.00;56.93;99325.13;4965981;28;124359;-75
2022/10/28 04:12:22;;;;;;;;;;;17.50;91.30;;;17.93;56.95;99324.06;4947328;28;123273;-76
2022/10/28 04:14:48;;;;;;;;;;;17.50;91.30;;;17.89;57.27;99323.94;4961855;28;119343;-75
2022/10/28 04:17:14;;;;;;;;;;;17.40;91.40;;;17.88;57.26;99331.50;4956659;28;119315;-76
2022/10/28 04:19:40;;;;;;;;;;;17.40;91.50;;;17.91;57.37;99335.59;4962341;28;124363;-75
2022/10/28 04:22:08;;;;;;;;;;;17.40;91.60;;;17.94;57.24;99337.69;4949729;28;123598;-75
2022/10/28 04:24:34;;;;;;;;;;;17.40;91.60;;;17.97;57.36;99327.78;4959186;28;120047;-76
2022/10/28 04:27:01;;;;;;;;;;;17.50;91.60;;;18.01;57.25;99329.53;4959852;28;118704;-76
2022/10/28 04:29:27;;;;;;;;;;;17.50;91.60;;;18.02;57.19;99325.56;4963611;28;124840;-74
2022/10/28 04:31:53;;;;;;;;;;;17.60;91.60;;;18.06;57.20;99325.72;4962901;28;122861;-75
2022/10/28 04:34:19;;;;;;;;;;;17.60;91.60;;;18.08;57.09;99329.78;4954154;28;119929;-76
2022/10/28 04:36:46;;;;;;;;;;;17.60;91.60;;;18.09;56.99;99328.59;4964279;28;117657;-75
2022/10/28 04:39:12;;;;;;;;;;;17.60;91.60;;;18.13;57.10;99325.91;4957942;28;123549;-75
2022/10/28 04:41:39;;;;;;;;;;;17.60;91.60;;;18.12;56.96;99317.91;4954339;28;123889;-75
2022/10/28 04:44:05;;;;;;;;;;;17.60;91.70;;;18.13;57.34;99322.31;4963869;28;120800;-75
2022/10/28 04:46:31;;;;;;;;;;;17.60;91.70;;;18.12;57.14;99329.09;4965809;28;119661;-77
2022/10/28 04:48:58;;;;;;;;;;;17.60;91.70;;;18.12;57.18;99324.28;4952247;28;124302;-76
2022/10/28 04:51:24;;;;;;;;;;;17.60;92.00;;;18.10;57.33;99330.22;4966449;28;124145;-78
2022/10/28 04:53:50;;;;;;;;;;;17.60;91.70;;;18.09;57.36;99328.59;4952134;28;119348;-76
2022/10/28 04:56:17;;;;;;;;;;;17.60;91.70;;;18.08;57.38;99329.78;4947748;28;118824;-76
2022/10/28 04:58:43;;;;;;;;;;;17.60;91.80;;;18.08;57.27;99332.59;4951597;28;124571;-76
2022/10/28 05:01:09;;;;;;;;;;;17.60;91.80;;;18.12;57.24;99329.09;4953175;28;124301;-76
2022/10/28 05:03:36;;;;;;;;;;;17.60;91.80;;;18.11;57.22;99333.88;4949126;28;119846;-76
2022/10/28 05:06:02;;;;;;;;;;;17.60;91.80;;;18.13;57.29;99330.69;4946489;28;118693;-77
2022/10/28 05:08:29;;;;;;;;;;;17.60;91.80;;;18.13;57.21;99328.72;4942437;28;125449;-76
2022/10/28 05:10:55;;;;;;;;;;;17.60;91.80;;;18.15;57.22;99325.59;4954130;28;123894;-76
2022/10/28 05:13:21;;;;;;;;;;;17.60;91.80;;;18.14;57.27;99321.16;4947423;28;119240;-77
2022/10/28 05:15:48;;;;;;;;;;;17.60;91.80;;;18.13;57.21;99319.50;4953184;28;118247;-76
2022/10/28 05:18:14;;;;;;;;;;;17.60;91.80;;;18.13;57.28;99306.34;4948584;28;124407;-76
2022/10/28 05:20:41;;;;;;;;;;;17.60;91.90;;;18.14;57.31;99307.19;4957465;28;124291;-77
2022/10/28 05:23:07;;;;;;;;;;;17.60;91.90;;;18.15;57.29;99300.41;4948218;28;119412;-78
2022/10/28 05:25:33;;;;;;;;;;;17.60;91.90;;;18.13;57.37;99294.34;4955385;28;118757;-77
2022/10/28 05:28:00;;;;;;;;;;;17.60;91.90;;;18.11;57.40;99294.72;4958944;28;124041;-77
2022/10/28 05:30:27;;;;;;;;;;;17.60;92.00;;;18.11;57.95;99294.72;4960142;28;124698;-76
2022/10/28 05:33:01;;;;;;;;;;;17.60;92.20;;;18.13;57.89;99302.75;4949188;28;120216;-79
2022/10/28 05:35:28;;;;;;;;;;;17.60;92.30;;;18.13;57.82;99303.53;4952210;28;119580;-78
2022/10/28 05:37:54;;;;;;;;;;;17.60;92.30;;;18.16;57.75;99302.03;4949763;28;123838;-77
2022/10/28 05:40:20;;;;;;;;;;;17.60;92.30;;;18.18;57.77;99299.69;4957405;28;124603;-77
2022/10/28 05:42:47;;;;;;;;;;;17.60;92.20;;;18.19;57.57;99298.53;4946462;28;118711;-76
2022/10/28 05:45:13;;;;;;;;;;;17.70;92.20;;;18.20;57.62;99302.97;4951889;28;118918;-76
2022/10/28 05:47:47;;;;;;;;;;;17.70;92.20;;;18.20;57.50;99291.78;4960291;28;124620;-78
2022/10/28 05:50:15;;;;;;;;;;;17.70;92.20;;;18.19;57.28;99299.38;4956711;28;123512;-77
2022/10/28 05:52:49;;;;;;;;;;;17.70;92.20;;;18.21;57.49;99299.00;4959257;28;119347;-75
2022/10/28 05:55:18;;;;;;;;;;;17.70;92.20;;;18.20;57.35;99297.38;4948189;28;117837;-76
2022/10/28 05:57:45;;;;;;;;;;;17.70;92.20;;;18.19;57.41;99304.13;4961086;28;124313;-77
2022/10/28 06:00:12;;;;;;;;;;;17.70;92.20;;;18.19;57.46;99301.31;4958746;28;124064;-77
2022/10/28 06:02:39;;;;;;;;;;;17.70;92.20;;;18.18;57.16;99310.88;4953904;28;119571;-77
2022/10/28 06:05:06;;;;;;;;;;;17.60;92.20;;;18.18;57.63;99308.91;4962405;28;118963;-75
2022/10/28 06:07:33;;;;;;;;;;;17.60;92.20;;;18.19;57.27;99302.16;4952948;28;124832;-78
2022/10/28 06:10:02;;;;;;;;;;;17.70;92.20;;;18.20;57.50;99297.38;4961284;28;124201;-77
2022/10/28 06:12:28;;;;;;;;;;;17.70;92.20;;;18.22;57.45;99306.25;4957372;28;119682;-78
2022/10/28 06:14:54;;;;;;;;;;;17.70;92.20;;;18.22;57.37;99303.44;4953135;28;118620;-76
2022/10/28 06:17:21;;;;;;;;;;;17.70;92.20;;;18.25;57.36;99305.53;4965343;28;123560;-77
2022/10/28 06:19:47;;;;;;;;;;;17.70;92.20;;;18.24;57.38;99310.31;4963975;28;122948;-77
2022/10/28 06:22:13;;;;;;;;;;;17.70;92.20;;;18.25;57.35;99311.13;4954888;28;120874;-76
2022/10/28 06:24:40;;;;;;;;;;;17.70;92.20;;;18.25;57.36;99316.72;4954386;28;119591;-77
2022/10/28 06:27:06;;;;;;;;;;;17.70;92.20;;;18.25;57.51;99322.31;4955730;28;124484;-75
2022/10/28 06:29:34;;;;;;;;;;;17.70;92.20;;;18.24;57.36;99315.06;4957718;28;124057;-82
2022/10/28 06:32:00;;;;;;;;;;;17.80;92.20;;;18.23;57.38;99319.03;4953063;28;119639;-77
2022/10/28 06:34:27;;;;;;;;;;;17.70;92.20;;;18.21;57.42;99322.19;4958989;28;119028;-76
2022/10/28 06:36:53;;;;;;;;;;;17.70;92.20;;;18.21;57.30;99315.78;4962647;28;123988;-76
2022/10/28 06:39:19;;;;;;;;;;;17.70;92.20;;;18.21;57.23;99324.16;4950920;28;124426;-78
2022/10/28 06:41:46;;;;;;;;;;;16.40;91.60;;;18.18;57.34;99316.47;4966581;28;120240;-78
2022/10/28 06:44:12;;;;;;;;;;;17.70;92.10;;;18.16;57.27;99313.22;4961577;28;117674;-77
2022/10/28 06:46:38;;;;;;;;;;;17.70;92.20;;;18.15;57.18;99311.59;4950760;28;124160;-78
2022/10/28 06:49:07;;;;;;;;;;;17.70;92.10;;;18.16;57.25;99308.47;4965124;28;122447;-79
2022/10/28 06:51:34;;;;;;;;;;;17.70;92.10;;;18.16;57.28;99307.63;4964905;28;119430;-77
2022/10/28 06:54:00;;;;;;;;;;;17.70;92.10;;;18.17;57.28;99307.28;4962362;28;118808;-76
2022/10/28 06:56:26;;;;;;;;;;;17.70;92.10;;;18.19;57.16;99304.13;4964185;28;124361;-77
2022/10/28 06:58:53;;;;;;;;;;;17.70;92.10;;;18.21;57.13;99299.81;4964574;28;124397;-77
2022/10/28 07:01:21;;;;;;;;;;;17.70;92.10;;;18.23;57.40;99296.66;4959329;28;119584;-77
2022/10/28 07:03:47;;;;;;;;;;;17.80;92.30;;;18.23;57.40;99296.66;4961091;28;118812;-76
2022/10/28 07:06:15;;;;;;;;;;;17.70;92.30;;;18.25;57.43;99297.16;4960354;28;124588;-77
2022/10/28 07:08:41;;;;;;;;;;;17.70;92.40;;;18.25;57.54;99300.75;4957554;28;124231;-77
2022/10/28 07:11:08;;;;;;;;;;;17.70;92.40;;;18.26;57.26;99301.56;4946567;28;120331;-75
2022/10/28 07:13:34;;;;;;;;;;;17.70;92.40;;;18.26;57.06;99295.97;4950390;28;119108;-75
2022/10/28 07:16:00;;;;;;;;;;;17.70;92.30;;;18.27;57.21;99303.22;4953257;28;124245;-77
2022/10/28 07:18:28;;;;;;;;;;;17.70;92.30;;;18.27;57.13;99306.00;4947602;28;124538;-76
2022/10/28 07:20:59;;;;;;;;;;;17.70;92.20;;;18.26;56.92;99318.34;4947614;28;119710;-76
2022/10/28 07:23:25;;;;;;;;;;;17.70;92.20;;;18.26;56.81;99318.34;4946384;28;119735;-77
2022/10/28 07:25:53;;;;;;;;;;;17.70;92.10;;;18.26;56.75;99329.53;4958968;28;124793;-77
2022/10/28 07:28:21;;;;;;;;;;;17.70;92.10;;;18.26;56.68;99327.53;4945714;28;124836;-77
2022/10/28 07:30:47;;;;;;;;;;;17.70;92.00;;;18.27;56.79;99331.19;4940319;28;118917;-76
2022/10/28 07:33:13;;;;;;;;;;;17.70;92.00;;;18.31;56.65;99343.28;4946370;28;118207;-76
2022/10/28 07:35:41;;;;;;;;;;;17.80;92.00;;;18.34;56.62;99336.97;4955212;28;124969;-77
2022/10/28 07:38:08;;;;;;;;;;;17.80;92.00;;;18.35;56.68;99355.41;4953600;28;124051;-78
2022/10/28 07:40:34;;;;;;;;;;;17.80;92.00;;;18.39;56.58;99355.53;4951766;28;120702;-78
2022/10/28 07:43:00;;;;;;;;;;;17.80;92.00;;;18.41;56.60;99354.00;4947159;28;118790;-79
2022/10/28 07:45:27;;;;;;;;;;;17.80;92.00;;;18.43;56.58;99351.69;4948068;28;123656;-76
2022/10/28 07:47:53;;;;;;;;;;;17.90;92.00;;;18.46;56.52;99350.16;4952230;28;124183;-78
2022/10/28 07:50:19;;;;;;;;;;;17.90;92.00;;;18.47;56.55;99352.59;4949075;28;119569;-77
2022/10/28 07:52:46;;;;;;;;;;;17.90;92.00;;;18.47;56.52;99355.38;4953920;28;119628;-77
2022/10/28 07:55:12;;;;;;;;;;;17.90;92.00;;;18.48;56.30;99359.84;4964277;28;124803;-76
2022/10/28 07:57:39;;;;;;;;;;;19.30;92.50;;;18.49;56.35;99353.06;4965148;28;124082;-76
2022/10/28 08:00:06;;;;;;;;;;;17.90;91.90;;;18.52;56.16;99354.34;4957996;28;119797;-79
2022/10/28 08:02:32;;;;;;;;;;;17.90;91.90;;;18.53;56.23;99356.78;4962457;28;119283;-77
2022/10/28 08:05:00;;;;;;;;;;;18.00;91.90;;;18.56;56.08;99355.25;4950574;28;124229;-76
2022/10/28 08:07:27;;;;;;;;;;;18.00;91.90;;;18.58;56.03;99354.91;4954006;28;124181;-76
2022/10/28 08:09:54;;;;;;;;;;;18.00;91.80;;;18.61;55.96;99357.81;4953788;28;120001;-79
2022/10/28 08:12:20;;;;;;;;;;;18.10;91.80;;;18.65;56.02;99353.16;4949997;28;119345;-77
2022/10/28 08:14:46;;;;;;;;;;;18.10;91.80;;;18.68;55.86;99358.03;4950132;28;124405;-76
2022/10/28 08:17:13;;;;;;;;;;;18.10;91.70;;;18.72;55.65;99352.53;4955283;28;124984;-76
2022/10/28 08:19:41;;;;;;;;;;;18.20;91.70;;;18.75;55.74;99360.25;4945372;28;119629;-77
2022/10/28 08:22:08;;;;;;;;;;;18.20;91.70;;;18.78;55.59;99365.19;4951287;28;118129;-78
2022/10/28 08:24:35;;;;;;;;;;;18.20;91.60;;;18.82;55.49;99365.28;4932112;28;123237;-78
2022/10/28 08:27:01;;;;;;;;;;;18.30;91.70;;;18.86;55.38;99368.97;4953522;28;124291;-76
2022/10/28 08:29:28;;;;;;;;;;;18.30;91.60;;;18.90;55.36;99362.31;4941065;28;119715;-81
2022/10/28 08:31:54;;;;;;;;;;;17.50;91.20;;;18.93;55.71;99367.22;4955619;28;119399;-77
2022/10/28 08:34:20;;;;;;;;;;;18.40;91.60;;;18.95;55.51;99364.88;4950346;28;124859;-77
2022/10/28 08:36:47;;;;;;;;;;;18.40;91.70;;;18.96;55.42;99363.69;4949600;28;124717;-76
2022/10/28 08:39:13;;;;;;;;;;;18.40;91.70;;;19.00;55.68;99363.03;4948658;28;119511;-79
2022/10/28 08:42:17;;;;;;;;;;;18.40;91.70;;;19.01;55.57;99364.63;4950826;28;118840;-81
2022/10/28 08:44:55;;;;;;;;;;;18.40;91.70;;;19.02;55.71;99361.50;4950360;28;124292;-77
2022/10/28 08:47:28;;;;;;;;;;;18.40;91.70;;;19.02;55.56;99355.91;4949861;28;124640;-78
2022/10/28 08:50:13;;;;;;;;;;;18.40;91.70;;;19.03;55.75;99356.69;4933379;28;119915;-78
2022/10/28 08:52:48;;;;;;;;;;;18.40;91.70;;;19.06;55.60;99347.59;4950455;28;119731;-78
2022/10/28 08:55:19;;;;;;;;;;;18.50;91.80;;;19.08;55.59;99340.47;4948018;28;124150;-79
2022/10/28 08:57:51;;;;;;;;;;;18.50;91.70;;;19.09;55.51;99346.88;4957379;28;124311;-78
2022/10/28 09:00:21;;;;;;;;;;;18.40;91.70;;;19.09;55.67;99347.69;4960934;28;120099;-78
2022/10/28 09:03:02;;;;;;;;;;;18.50;91.80;;;19.12;55.41;99349.75;4951638;28;118854;-75
2022/10/28 09:05:28;;;;;;;;;;;18.50;91.80;;;19.18;55.68;99350.31;4962872;28;123143;-76
2022/10/28 09:07:55;;;;;;;;;;;18.50;91.80;;;19.24;55.58;99353.72;4942088;28;123008;-77
2022/10/28 09:10:44;;;;;;;;;;;18.60;91.80;;;19.31;55.22;99354.69;4947559;28;119527;-76
2022/10/28 09:13:19;;;;;;;;;;;18.70;91.90;;;19.38;55.62;99368.91;4952043;28;118757;-76
2022/10/28 09:15:59;;;;;;;;;;;18.70;91.80;;;19.45;55.46;99373.94;4958811;28;124328;-78
2022/10/28 09:18:53;;;;;;;;;;;20.50;92.90;;;19.52;55.35;99390.09;4945777;28;124086;-77
2022/10/28 09:21:34;;;;;;;;;;;18.90;91.80;;;19.57;55.20;99390.66;4979138;28;119401;-78
2022/10/28 09:24:10;;;;;;;;;;;18.90;91.80;;;19.62;54.87;99384.00;4962158;28;118683;-80
2022/10/28 09:26:55;;;;;;;;;;;19.00;91.70;;;19.67;55.03;99388.56;4957738;28;124863;-78
2022/10/28 09:29:21;;;;;;;;;;;19.00;91.70;;;19.70;54.83;99380.22;4961218;28;123727;-77
2022/10/28 09:31:52;;;;;;;;;;;19.10;91.50;;;19.69;54.29;99372.97;4956630;28;120381;-77
2022/10/28 09:34:39;;;;;;;;;;;19.10;91.30;;;19.68;54.29;99348.94;4944691;28;118683;-77
2022/10/28 09:37:14;;;;;;;;;;;19.10;91.20;;;19.68;54.22;99314.47;4948157;28;124542;-78
2022/10/28 09:40:17;;;;;;;;;;;19.10;91.20;;;19.64;54.43;99297.53;4950499;28;124564;-80
2022/10/28 09:42:52;;;;;;;;;;;19.00;91.20;;;19.64;54.91;99339.59;4958196;28;120904;-75
2022/10/28 09:45:25;;;;;;;;;;;19.10;91.40;;;19.62;54.70;99355.97;4960758;28;119450;-75
2022/10/28 09:48:01;;;;;;;;;;;19.00;91.30;;;19.65;54.49;99339.22;4945735;28;124163;-77
2022/10/28 09:50:30;;;;;;;;;;;19.10;91.20;;;19.72;54.28;99344.25;4945180;28;123057;-76
2022/10/28 09:53:21;;;;;;;;;;;19.20;91.20;;;19.81;54.13;99347.69;4959968;28;118687;-78
2022/10/28 09:55:48;;;;;;;;;;;19.20;91.20;;;19.91;54.04;99345.50;4966005;28;118373;-77
2022/10/28 09:58:16;;;;;;;;;;;19.30;91.20;;;20.00;53.68;99337.72;4954223;28;124597;-77
2022/10/28 10:00:42;;;;;;;;;;;19.40;91.20;;;20.11;53.81;99335.19;4960378;28;123798;-77
2022/10/28 10:03:08;;;;;;;;;;;19.50;91.20;;;20.22;53.86;99334.25;4961752;28;119540;-76
2022/10/28 10:05:39;;;;;;;;;;;19.60;91.20;;;20.34;53.59;99341.78;4951291;28;119915;-76
2022/10/28 10:08:06;;;;;;;;;;;19.70;91.10;;;20.47;53.11;99336.84;4966324;28;125995;-77
2022/10/28 10:10:44;;;;;;;;;;;19.80;91.10;;;20.56;53.42;99329.06;4956820;28;123336;-77
2022/10/28 10:13:11;;;;;;;;;;;19.80;91.00;;;20.65;53.34;99328.88;4957273;28;119328;-76
2022/10/28 10:15:43;;;;;;;;;;;20.00;91.00;;;20.74;52.96;99335.91;4954402;28;118697;-77
2022/10/28 10:18:22;;;;;;;;;;;20.10;90.90;;;20.82;52.38;99336.88;4955456;28;124482;-77
2022/10/28 10:20:57;;;;;;;;;;;20.10;90.80;;;20.87;52.37;99335.75;4949934;28;124258;-75
2022/10/28 10:23:31;;;;;;;;;;;20.20;90.60;;;20.90;52.13;99351.88;4966461;28;118776;-77
2022/10/28 10:26:15;;;;;;;;;;;20.20;90.60;;;20.96;52.37;99347.59;4963921;28;119012;-77
2022/10/28 10:28:47;;;;;;;;;;;20.30;90.50;;;21.01;52.17;99332.44;4964935;28;123843;-78
2022/10/28 10:31:28;;;;;;;;;;;20.40;90.50;;;21.04;52.31;99296.00;4961844;28;123773;-78
2022/10/28 10:33:55;;;;;;;;;;;20.40;90.50;;;21.06;51.73;99271.13;4964383;28;121686;-77
2022/10/28 10:36:27;;;;;;;;;;;20.50;90.30;;;21.08;52.05;99307.31;4966529;28;119624;-76
2022/10/28 10:38:55;;;;;;;;;;;20.50;90.30;;;21.12;51.57;99325.88;4965653;28;123934;-76
2022/10/28 10:41:37;;;;;;;;;;;20.60;90.20;;;21.19;51.14;99326.00;4963635;28;123828;-77
2022/10/28 10:44:19;;;;;;;;;;;20.60;89.80;;;21.27;51.13;99310.09;4964312;28;119212;-77
2022/10/28 10:47:05;;;;;;;;;;;20.70;89.60;;;21.33;51.31;99296.53;4960433;28;118427;-76
2022/10/28 10:49:32;;;;;;;;;;;20.70;89.60;;;21.37;50.97;99305.88;4965230;28;124329;-77
2022/10/28 10:51:59;;;;;;;;;;;20.80;89.80;;;21.42;51.09;99311.22;4963689;28;124860;-77
2022/10/28 10:54:30;;;;;;;;;;;20.80;89.70;;;21.46;51.16;99331.75;4960196;28;119653;-76
2022/10/28 10:57:14;;;;;;;;;;;20.90;89.70;;;21.54;50.51;99324.28;4961041;28;118464;-77
2022/10/28 10:59:44;;;;;;;;;;;21.00;89.20;;;21.62;50.33;99317.59;4977060;28;123880;-75
2022/10/28 11:02:21;;;;;;;;;;;21.00;89.00;;;21.70;50.45;99315.72;4959035;28;124245;-76
2022/10/28 11:04:58;;;;;;;;;;;21.10;88.80;;;21.77;50.01;99318.69;4942829;28;118771;-76
2022/10/28 11:07:27;;;;;;;;;;;21.10;88.70;;;21.82;49.59;99319.16;4960579;28;119482;-77
2022/10/28 11:09:54;;;;;;;;;;;21.20;88.10;;;21.93;49.36;99318.53;4962960;28;124023;-76
2022/10/28 11:12:35;;;;;;;;;;;21.30;87.80;;;22.02;49.13;99324.72;4966099;28;125207;-76
2022/10/28 11:15:26;;;;;;;;;;;21.40;87.80;;;22.10;49.40;99317.22;4964721;28;119646;-77
2022/10/28 11:17:55;;;;;;;;;;;21.50;87.90;;;22.18;49.43;99313.31;4965761;28;118817;-78
2022/10/28 11:20:24;;;;;;;;;;;21.50;87.80;;;22.24;49.41;99317.47;4958791;28;124221;-79
2022/10/28 11:22:59;;;;;;;;;;;21.60;88.10;;;22.29;49.37;99314.31;4952500;28;124743;-79
2022/10/28 11:25:28;;;;;;;;;;;21.70;88.10;;;22.32;49.42;99307.94;4960943;28;119469;-79